Time;durP1;ratioP1;P1;durP2;ratioP2;P2;SDS_P1;SDS_P2;PMS_P1;PMS_P2;Temp;Humidity;BMP_temperature;BMP_pressure;BME280_temperature;BME280_humidity;BME280_pressure;Samples;Min_cycle;Max_cycle;Signal;HPM_P1;HPM_P2
2022/11/05 00:18:36;;;;;;;11.50;3.17;;;;;;;6.68;98.29;100768.94;20763958;28;20244;-72
2022/11/05 00:28:58;;;;;;;7.13;2.90;;;;;;;6.58;98.40;100778.03;20763473;28;20123;-72
2022/11/05 00:39:19;;;;;;;8.20;2.63;;;;;;;6.49;98.71;100787.09;20751097;28;20081;-72
2022/11/05 00:49:41;;;;;;;9.30;2.70;;;;;;;6.45;99.28;100808.03;20763913;28;20127;-72
2022/11/05 01:00:03;;;;;;;11.83;3.23;;;;;;;6.29;98.58;100809.69;20763339;28;20042;-72
2022/11/05 01:10:25;;;;;;;12.18;3.13;;;;;;;6.19;98.66;100808.44;20769298;28;20137;-72
2022/11/05 01:20:47;;;;;;;6.88;2.10;;;;;;;6.13;99.36;100795.78;20767055;28;20057;-71
2022/11/05 01:31:08;;;;;;;9.65;2.97;;;;;;;6.12;99.14;100809.63;20766624;28;20054;-71
2022/11/05 01:41:30;;;;;;;12.00;3.03;;;;;;;6.07;99.60;100807.25;20760643;28;20598;-71
2022/11/05 01:51:51;;;;;;;11.03;3.00;;;;;;;6.06;98.60;100809.94;20759857;28;20099;-71
2022/11/05 02:02:13;;;;;;;7.43;2.80;;;;;;;6.04;99.19;100803.97;20757061;28;20053;-71
2022/11/05 02:12:38;;;;;;;9.85;3.05;;;;;;;5.92;98.66;100812.31;20739930;28;20052;-71
2022/11/05 02:22:59;;;;;;;8.10;2.65;;;;;;;5.72;99.10;100820.09;20776455;28;20038;-71
2022/11/05 02:33:27;;;;;;;9.43;2.33;;;;;;;5.60;99.47;100823.22;20759998;28;20057;-71
2022/11/05 02:44:31;;;;;;;11.55;2.70;;;;;;;5.60;100.00;100830.16;20758576;28;20054;-72
2022/11/05 02:55:04;;;;;;;9.85;2.80;;;;;;;5.47;100.00;100829.84;20749575;28;20046;-71
2022/11/05 03:05:37;;;;;;;12.77;2.72;;;;;;;5.42;99.87;100833.53;20792709;22;20116;-65
2022/11/05 03:16:06;;;;;;;9.30;2.30;;;;;;;5.34;100.00;100838.19;20789797;28;20050;-67
2022/11/05 03:26:34;;;;;;;6.75;2.15;;;;;;;5.30;100.00;100832.31;20768173;28;20056;-67
2022/11/05 03:36:57;;;;;;;8.15;2.17;;;;;;;5.33;99.87;100832.19;20797790;28;20045;-65
2022/11/05 03:47:28;;;;;;;6.65;2.00;;;;;;;5.23;99.89;100838.69;20750742;28;20512;-66
2022/11/05 03:57:53;;;;;;;11.00;2.60;;;;;;;5.10;99.99;100834.91;20777162;28;20076;-65
2022/11/05 04:18:55;;;;;;;6.40;1.98;;;;;;;5.02;100.00;100842.16;20786570;28;20053;-65
2022/11/05 04:39:57;;;;;;;8.80;2.40;;;;;;;5.13;100.00;100863.19;20788293;28;20098;-65
2022/11/05 04:50:18;;;;;;;4.50;2.40;;;;;;;5.10;100.00;100876.25;20764698;28;20045;-65
2022/11/05 05:00:40;;;;;;;8.05;2.50;;;;;;;5.07;100.00;100881.56;20768946;28;20358;-65
2022/11/05 05:11:04;;;;;;;10.17;2.70;;;;;;;5.03;100.00;100886.88;20778157;28;20096;-65
2022/11/05 05:21:37;;;;;;;8.15;2.53;;;;;;;5.04;99.82;100891.16;20767043;28;20050;-64
2022/11/05 05:31:59;;;;;;;7.63;2.75;;;;;;;4.93;100.00;100883.88;20792763;28;20046;-65
2022/11/05 05:42:21;;;;;;;6.50;2.93;;;;;;;4.88;100.00;100896.13;20757247;28;20743;-65
2022/11/05 05:52:43;;;;;;;12.65;3.25;;;;;;;4.91;100.00;100906.31;20796208;28;20021;-65
2022/11/05 06:03:05;;;;;;;4.73;2.83;;;;;;;4.88;100.00;100916.78;20848290;28;20080;-65
2022/11/05 06:13:26;;;;;;;9.23;2.80;;;;;;;4.87;100.00;100920.25;20783515;28;20049;-66
2022/11/05 06:23:48;;;;;;;7.70;2.90;;;;;;;4.87;100.00;100922.84;20771335;28;20061;-66
2022/11/05 06:34:10;;;;;;;13.17;3.47;;;;;;;4.89;100.00;100927.94;20773066;28;20045;-66
2022/11/05 06:44:31;;;;;;;8.37;3.50;;;;;;;4.87;100.00;100946.06;20812496;28;20296;-65
2022/11/05 06:54:53;;;;;;;8.13;2.93;;;;;;;4.85;100.00;100955.63;20804847;28;20374;-66
2022/11/05 07:05:15;;;;;;;12.17;3.33;;;;;;;4.94;100.00;100959.59;20764254;28;20119;-65
2022/11/05 07:15:37;;;;;;;9.13;3.70;;;;;;;5.16;100.00;100976.75;20767363;28;20046;-67
2022/11/05 07:25:58;;;;;;;10.53;3.57;;;;;;;5.25;100.00;100984.13;20745691;28;20136;-66
2022/11/05 07:36:19;;;;;;;5.70;3.30;;;;;;;5.28;100.00;100986.59;20749920;28;20050;-69
2022/11/05 07:46:41;;;;;;;8.97;3.93;;;;;;;5.33;100.00;100995.00;20745117;28;20034;-70
2022/11/05 07:57:02;;;;;;;14.07;3.97;;;;;;;5.48;100.00;100996.97;20735583;28;20050;-69
2022/11/05 08:07:24;;;;;;;8.00;3.50;;;;;;;5.61;99.71;100987.78;20760959;28;20440;-69
2022/11/05 08:17:45;;;;;;;8.93;3.50;;;;;;;5.70;99.33;100997.75;20741285;28;20119;-69
2022/11/05 08:28:10;;;;;;;4.37;3.10;;;;;;;5.93;100.00;100995.06;20738704;28;20091;-70
2022/11/05 08:38:31;;;;;;;7.50;3.13;;;;;;;6.10;99.71;101002.94;20766563;28;20445;-69
2022/11/05 08:48:53;;;;;;;6.20;3.20;;;;;;;6.32;99.07;101003.66;20741252;28;20464;-67
2022/11/05 08:59:14;;;;;;;7.50;3.10;;;;;;;6.55;97.75;101006.91;20748021;28;20103;-69
2022/11/05 09:09:36;;;;;;;12.63;3.47;;;;;;;6.81;97.06;101015.19;20780111;22;20491;-67
2022/11/05 09:19:57;;;;;;;6.57;3.10;;;;;;;6.99;96.66;101019.47;20784669;28;20118;-67
2022/11/05 09:30:19;;;;;;;6.03;3.33;;;;;;;7.19;95.68;101015.97;20678057;28;20649;-67
2022/11/05 09:41:11;;;;;;;5.77;3.17;;;;;;;7.46;95.21;101023.25;20691083;28;20096;-67
2022/11/05 09:51:34;;;;;;;11.20;3.38;;;;;;;7.70;94.36;101032.44;20660209;28;20158;-68
2022/11/05 10:02:10;;;;;;;8.48;3.40;;;;;;;7.89;95.17;101035.78;20649844;28;20080;-68
2022/11/05 10:12:46;;;;;;;7.60;2.80;;;;;;;8.23;92.65;101036.59;20670792;28;20168;-66
2022/11/05 10:23:12;;;;;;;9.77;3.10;;;;;;;8.57;91.86;101035.72;20657858;28;20147;-68
2022/11/05 10:33:38;;;;;;;8.27;2.95;;;;;;;8.81;90.80;101030.88;20681394;28;20576;-68
2022/11/05 10:44:05;;;;;;;5.28;2.63;;;;;;;9.00;90.56;101041.94;20672934;28;20108;-69
2022/11/05 10:54:32;;;;;;;6.13;2.75;;;;;;;9.13;90.71;101037.75;20671344;28;20828;-68
2022/11/05 11:04:56;;;;;;;6.47;2.40;;;;;;;9.38;89.70;101043.25;20658452;28;20104;-68
2022/11/05 11:15:19;;;;;;;6.07;2.80;;;;;;;9.69;88.47;101048.41;20659881;28;20579;-67
2022/11/05 11:26:05;;;;;;;5.83;2.73;;;;;;;9.83;88.39;101035.44;20674178;28;20050;-67
2022/11/05 11:36:34;;;;;;;4.85;2.60;;;;;;;10.02;87.69;101042.09;20668551;28;20230;-69
2022/11/05 11:47:00;;;;;;;5.07;2.70;;;;;;;10.08;87.90;101033.09;20646282;28;20131;-67
2022/11/05 11:57:27;;;;;;;7.28;2.80;;;;;;;10.27;87.86;101036.28;20659455;28;20050;-68
2022/11/05 12:07:54;;;;;;;9.73;2.63;;;;;;;10.48;87.03;101035.00;20667602;28;20151;-66
2022/11/05 12:18:34;;;;;;;8.90;2.22;;;;;;;10.61;86.23;101031.53;20638505;28;20193;-66
2022/11/05 12:28:59;;;;;;;10.02;2.65;;;;;;;10.71;85.85;101043.91;20657344;28;20209;-65
2022/11/05 12:39:50;;;;;;;6.25;2.50;;;;;;;10.78;85.76;101034.75;20657120;28;20042;-65
2022/11/05 12:50:36;;;;;;;6.03;2.40;;;;;;;10.89;85.11;101039.31;20660076;28;20169;-67
2022/11/05 13:01:03;;;;;;;8.90;2.70;;;;;;;10.76;85.87;101041.88;20675839;28;20113;-67
2022/11/05 13:11:32;;;;;;;4.15;2.40;;;;;;;10.81;86.29;101039.78;20674559;28;20045;-66
2022/11/05 13:22:00;;;;;;;6.18;2.40;;;;;;;10.80;85.82;101032.09;20672281;28;20066;-66
2022/11/05 13:32:40;;;;;;;9.15;2.65;;;;;;;10.83;85.75;101026.69;20672157;28;20070;-69
2022/11/05 13:43:20;;;;;;;6.85;2.53;;;;;;;10.79;85.49;101025.19;20683019;28;20458;-68
2022/11/05 13:54:08;;;;;;;7.47;2.53;;;;;;;10.77;84.85;101027.88;20653090;28;20073;-67
2022/11/05 14:04:31;;;;;;;6.68;2.40;;;;;;;10.67;85.82;101018.13;20673878;28;20101;-66
2022/11/05 14:15:01;;;;;;;3.58;2.20;;;;;;;10.68;85.35;101020.63;20669323;28;20110;-67
2022/11/05 14:25:24;;;;;;;6.22;2.05;;;;;;;10.65;85.58;101018.22;20662618;28;20077;-67
2022/11/05 14:35:45;;;;;;;5.90;2.00;;;;;;;10.60;85.56;101020.28;20676287;28;20038;-67
2022/11/05 14:46:07;;;;;;;3.73;2.07;;;;;;;10.49;86.68;101006.22;20672254;28;20038;-67
2022/11/05 14:56:47;;;;;;;3.47;2.47;;;;;;;10.48;86.21;101006.34;20679873;28;20094;-67
2022/11/05 15:07:34;;;;;;;8.00;2.53;;;;;;;10.42;85.92;100998.88;20681691;28;20077;-67
2022/11/05 15:18:03;;;;;;;3.70;2.33;;;;;;;10.34;86.76;101006.31;20666163;28;20631;-67
2022/11/05 15:28:49;;;;;;;6.65;2.83;;;;;;;10.28;86.36;101014.50;20678210;28;20078;-67
2022/11/05 15:39:25;;;;;;;8.40;3.53;;;;;;;10.18;85.87;101013.41;20680571;28;20054;-68
2022/11/05 15:50:00;;;;;;;8.15;3.67;;;;;;;10.07;86.64;101007.97;20672179;28;20129;-67
2022/11/05 16:00:27;;;;;;;6.72;3.17;;;;;;;9.95;86.36;101019.06;20669753;28;20042;-68
2022/11/05 16:10:59;;;;;;;7.70;3.80;;;;;;;9.88;86.82;101033.41;20676317;28;20080;-67
2022/11/05 16:21:24;;;;;;;7.70;3.58;;;;;;;9.76;87.19;101034.09;20677185;28;20452;-68
2022/11/05 16:31:51;;;;;;;9.25;3.67;;;;;;;9.67;86.87;101045.91;20669763;28;20033;-68
2022/11/05 16:42:22;;;;;;;7.00;3.88;;;;;;;9.60;86.93;101041.13;20689386;28;20113;-68
2022/11/05 16:52:45;;;;;;;11.25;4.43;;;;;;;9.58;87.22;101042.97;20669136;28;20105;-67
2022/11/05 17:03:06;;;;;;;10.57;4.55;;;;;;;9.51;87.23;101044.22;20697094;28;20058;-68
2022/11/05 17:13:27;;;;;;;8.80;4.33;;;;;;;9.47;87.23;101050.53;20684810;28;20105;-68
2022/11/05 17:23:49;;;;;;;10.13;4.73;;;;;;;9.39;86.70;101034.53;20691742;28;20050;-68
2022/11/05 17:34:10;;;;;;;8.60;4.30;;;;;;;9.42;87.21;101018.75;20659294;28;20409;-68
2022/11/05 17:44:32;;;;;;;10.97;4.90;;;;;;;9.36;87.43;101013.88;20681335;28;20639;-67
2022/11/05 17:54:53;;;;;;;10.70;4.30;;;;;;;9.31;87.11;101018.53;20655174;28;20058;-68
2022/11/05 18:05:20;;;;;;;11.87;4.30;;;;;;;9.28;86.82;101021.28;20675215;28;20042;-67
2022/11/05 18:15:42;;;;;;;6.72;4.30;;;;;;;9.30;86.86;101032.47;20673855;28;20045;-68
2022/11/05 18:26:11;;;;;;;8.32;4.03;;;;;;;9.26;86.36;101023.13;20684394;28;20058;-68
2022/11/05 18:36:33;;;;;;;7.03;4.43;;;;;;;9.21;87.36;101014.75;20664884;28;20127;-68
2022/11/05 18:46:54;;;;;;;7.70;4.47;;;;;;;9.19;86.86;101013.97;20680398;28;20119;-68
2022/11/05 18:57:19;;;;;;;7.82;3.95;;;;;;;9.18;87.01;101014.91;20669242;28;20112;-68
2022/11/05 19:07:40;;;;;;;11.70;4.30;;;;;;;9.15;86.36;101007.31;20675811;28;20054;-69
2022/11/05 19:18:02;;;;;;;8.53;4.33;;;;;;;9.14;86.15;101000.41;20669833;28;20088;-69
2022/11/05 19:28:24;;;;;;;9.50;4.22;;;;;;;9.15;86.05;100986.50;20665084;28;20047;-69
2022/11/05 19:38:53;;;;;;;8.95;4.40;;;;;;;9.09;86.09;100983.41;20663356;28;20047;-69
2022/11/05 19:49:14;;;;;;;8.27;4.22;;;;;;;9.10;86.17;100987.66;20652699;28;20079;-69
2022/11/05 19:59:36;;;;;;;7.77;4.57;;;;;;;9.03;85.93;100988.94;20655101;28;20082;-69
2022/11/05 20:09:57;;;;;;;9.60;5.07;;;;;;;8.95;86.15;100972.94;20697902;28;20046;-69
2022/11/05 20:20:19;;;;;;;15.60;5.07;;;;;;;8.91;86.33;100984.41;20679294;28;20104;-69
2022/11/05 20:30:40;;;;;;;;;;;;;;;8.87;85.07;100999.34;20689788;28;20115;-69
2022/11/05 20:41:11;;;;;;;10.17;5.60;;;;;;;8.89;86.55;100992.28;20682108;28;19922;-69
2022/11/05 20:51:33;;;;;;;8.27;5.25;;;;;;;8.85;86.88;100996.00;20680765;28;20042;-69
2022/11/05 21:01:54;;;;;;;8.97;4.80;;;;;;;8.83;86.43;100986.59;20672138;28;20520;-69
2022/11/05 21:12:17;;;;;;;10.90;4.97;;;;;;;8.90;86.27;100983.56;20691536;28;20097;-68
2022/11/05 21:22:41;;;;;;;8.77;4.80;;;;;;;8.93;86.83;100983.41;20686647;28;20100;-69
2022/11/05 21:33:04;;;;;;;12.23;4.75;;;;;;;8.96;86.45;100972.84;20759659;22;20050;-62
2022/11/05 21:43:25;;;;;;;9.90;4.38;;;;;;;9.00;87.30;100952.69;20744681;28;20049;-61
2022/11/05 22:04:33;;;;;;;11.60;4.55;;;;;;;9.05;87.80;100945.50;20761509;28;20046;-62
2022/11/05 22:14:54;;;;;;;8.02;3.70;;;;;;;9.05;88.52;100930.72;20742843;28;20141;-61
2022/11/05 22:25:16;;;;;;;12.03;4.60;;;;;;;9.04;88.87;100912.59;20741370;28;20060;-62
2022/11/05 22:35:38;;;;;;;7.25;3.88;;;;;;;9.06;88.27;100908.16;20744591;28;20095;-61
2022/11/05 22:46:03;;;;;;;;;;;;;;;9.02;88.47;100915.28;20749729;28;20053;-61
2022/11/05 22:56:28;;;;;;;7.28;3.85;;;;;;;9.05;88.63;100899.50;20745515;28;20012;-61
2022/11/05 23:28:10;;;;;;;9.30;4.03;;;;;;;9.13;89.24;100889.53;20757980;28;20100;-62
2022/11/05 23:38:32;;;;;;;6.85;3.35;;;;;;;9.11;89.44;100873.16;20760446;28;20458;-62
2022/11/05 23:48:54;;;;;;;10.30;4.13;;;;;;;9.00;90.62;100854.75;20749427;28;20057;-62
2022/11/05 23:59:15;;;;;;;8.33;3.60;;;;;;;8.88;91.93;100852.84;20742523;28;20131;-62
